createdAt,value
2022-11-06T00:09:17.832Z,12.50
2022-11-06T00:14:12.501Z,12.50
2022-11-06T00:16:40.518Z,12.50
2022-11-06T00:19:07.704Z,12.50
2022-11-06T00:24:04.157Z,12.50
2022-11-06T00:26:32.189Z,12.50
2022-11-06T00:31:29.609Z,12.50
2022-11-06T00:33:58.451Z,12.50
2022-11-06T00:36:26.695Z,12.50
2022-11-06T00:38:55.134Z,12.50
2022-11-06T00:41:23.398Z,12.50
2022-11-06T00:43:52.244Z,12.50
2022-11-06T00:51:24.272Z,12.40
2022-11-06T00:53:55.507Z,12.50
2022-11-06T00:56:23.317Z,12.40
2022-11-06T01:01:23.424Z,12.40
2022-11-06T01:03:57.148Z,12.40
2022-11-06T01:06:26.601Z,12.40
2022-11-06T01:11:23.940Z,12.40
2022-11-06T01:13:53.754Z,12.40
2022-11-06T01:16:21.979Z,12.40
2022-11-06T01:21:25.245Z,12.40
2022-11-06T01:24:01.594Z,12.30
2022-11-06T01:26:38.357Z,12.30
2022-11-06T01:29:08.604Z,12.30
2022-11-06T01:31:36.290Z,12.30
2022-11-06T01:34:04.537Z,12.30
2022-11-06T01:36:32.432Z,12.30
2022-11-06T01:39:01.615Z,12.30
2022-11-06T01:41:32.035Z,12.30
2022-11-06T01:44:01.976Z,12.30
2022-11-06T01:46:34.755Z,12.30
2022-11-06T01:49:16.713Z,12.20
2022-11-06T01:51:54.052Z,12.30
2022-11-06T01:54:22.707Z,12.20
2022-11-06T01:56:52.141Z,12.20
2022-11-06T01:59:22.558Z,12.20
2022-11-06T02:04:24.548Z,12.20
2022-11-06T02:09:19.820Z,12.20
2022-11-06T02:12:11.618Z,12.20
2022-11-06T02:14:46.127Z,12.20
2022-11-06T02:17:41.249Z,12.10
2022-11-06T02:20:15.549Z,12.10
2022-11-06T02:22:57.427Z,12.10
2022-11-06T02:25:51.999Z,12.00
2022-11-06T02:28:26.494Z,12.00
2022-11-06T02:30:53.748Z,12.00
2022-11-06T02:33:34.439Z,12.00
2022-11-06T02:36:12.071Z,11.90
2022-11-06T02:38:45.610Z,11.80
2022-11-06T02:41:24.623Z,12.00
2022-11-06T02:43:56.935Z,11.90
2022-11-06T02:46:39.862Z,11.90
2022-11-06T02:49:20.143Z,11.80
2022-11-06T02:51:51.337Z,11.80
2022-11-06T02:54:21.360Z,11.80
2022-11-06T02:56:52.260Z,11.70
2022-11-06T02:59:24.091Z,11.70
2022-11-06T03:02:07.442Z,11.60
2022-11-06T03:04:58.378Z,11.60
2022-11-06T03:12:28.163Z,11.50
2022-11-06T03:15:00.638Z,11.40
2022-11-06T03:17:59.535Z,11.40
2022-11-06T03:20:45.915Z,11.40
2022-11-06T03:23:37.854Z,11.30
2022-11-06T03:26:16.244Z,11.30
2022-11-06T03:28:56.861Z,11.30
2022-11-06T03:31:36.649Z,11.20
2022-11-06T03:34:10.970Z,11.20
2022-11-06T03:36:49.225Z,11.10
2022-11-06T03:39:25.905Z,11.10
2022-11-06T03:42:14.907Z,11.00
2022-11-06T03:44:48.426Z,11.00
2022-11-06T03:47:23.983Z,11.00
2022-11-06T03:49:57.389Z,11.00
2022-11-06T03:52:33.870Z,10.90
2022-11-06T03:55:22.648Z,10.90
2022-11-06T04:00:20.457Z,10.80
2022-11-06T04:03:04.735Z,10.80
2022-11-06T04:05:55.144Z,10.70
2022-11-06T04:08:43.726Z,10.70
2022-11-06T04:11:32.800Z,10.70
2022-11-06T04:14:05.444Z,10.70
2022-11-06T04:16:46.559Z,10.70
2022-11-06T04:19:18.967Z,10.70
2022-11-06T04:22:20.044Z,10.70
2022-11-06T04:25:27.679Z,10.70
2022-11-06T04:28:09.450Z,10.60
2022-11-06T04:30:55.799Z,10.60
2022-11-06T04:33:30.551Z,10.60
2022-11-06T04:36:16.375Z,10.60
2022-11-06T04:38:57.322Z,10.50
2022-11-06T04:44:10.129Z,10.50
2022-11-06T04:46:55.049Z,10.50
2022-11-06T04:49:23.435Z,10.50
2022-11-06T04:54:18.088Z,10.40
2022-11-06T04:59:18.163Z,10.50
2022-11-06T05:01:46.503Z,10.40
2022-11-06T05:14:02.564Z,10.40
2022-11-06T05:24:10.440Z,10.30
2022-11-06T05:29:04.803Z,10.30
2022-11-06T05:41:21.487Z,10.30
2022-11-06T05:43:48.523Z,10.30
2022-11-06T05:58:52.101Z,10.20
2022-11-06T06:03:46.446Z,10.30
2022-11-06T06:11:08.857Z,10.30
2022-11-06T06:13:37.414Z,10.30
2022-11-06T06:18:31.719Z,10.30
2022-11-06T06:23:26.163Z,10.40
2022-11-06T06:28:20.455Z,10.40
2022-11-06T06:38:09.631Z,10.60
2022-11-06T06:48:05.505Z,10.70
2022-11-06T06:50:32.814Z,10.80
2022-11-06T06:53:00.087Z,10.80
2022-11-06T06:57:59.914Z,10.80
2022-11-06T07:05:26.661Z,10.80
2022-11-06T07:20:10.800Z,10.70
2022-11-06T07:25:06.149Z,10.70
2022-11-06T07:59:41.134Z,10.70
2022-11-06T08:02:12.912Z,10.80
2022-11-06T08:12:02.456Z,10.90
2022-11-06T08:16:57.628Z,11.00
2022-11-06T08:21:52.977Z,11.00
2022-11-06T08:24:22.180Z,11.00
2022-11-06T08:36:52.615Z,11.20
2022-11-06T09:03:53.809Z,11.20
2022-11-06T09:08:48.477Z,11.20
2022-11-06T09:18:44.014Z,11.30
2022-11-06T09:21:11.522Z,11.30
2022-11-06T09:31:02.267Z,11.40
2022-11-06T09:40:58.189Z,11.60
2022-11-06T09:46:29.659Z,11.70
2022-11-06T09:49:16.162Z,11.70
2022-11-06T09:51:52.671Z,11.80
2022-11-06T09:54:28.257Z,11.90
2022-11-06T09:57:02.073Z,11.90
2022-11-06T09:59:31.542Z,11.90
2022-11-06T10:02:01.882Z,12.00
2022-11-06T10:05:02.382Z,12.00
2022-11-06T10:07:36.130Z,12.00
2022-11-06T10:10:05.716Z,12.10
2022-11-06T10:15:17.888Z,12.20
2022-11-06T10:18:08.330Z,12.20
2022-11-06T10:20:45.269Z,12.20
2022-11-06T10:23:31.296Z,12.20
2022-11-06T10:26:07.590Z,12.30
2022-11-06T10:29:05.341Z,12.40
2022-11-06T10:32:00.269Z,12.40
2022-11-06T10:34:32.943Z,12.40
2022-11-06T10:37:11.076Z,12.50
2022-11-06T10:42:18.567Z,12.50
2022-11-06T10:44:48.586Z,12.60
2022-11-06T10:47:21.341Z,12.60
2022-11-06T10:49:57.830Z,12.70
2022-11-06T10:52:46.605Z,12.70
2022-11-06T10:57:46.742Z,12.80
2022-11-06T11:00:15.340Z,12.90
2022-11-06T11:02:49.485Z,13.00
2022-11-06T11:05:18.476Z,13.00
2022-11-06T11:07:48.342Z,13.10
2022-11-06T11:10:24.043Z,13.10
2022-11-06T11:12:53.938Z,13.20
2022-11-06T11:15:26.195Z,13.20
2022-11-06T11:18:12.004Z,13.30
2022-11-06T11:20:41.247Z,13.30
2022-11-06T11:23:22.422Z,13.30
2022-11-06T11:25:55.750Z,13.40
2022-11-06T11:28:33.111Z,13.50
2022-11-06T11:31:06.400Z,13.50
2022-11-06T11:33:34.265Z,13.60
2022-11-06T11:36:03.302Z,13.60
2022-11-06T11:41:19.365Z,13.80
2022-11-06T11:44:14.958Z,13.80
2022-11-06T11:46:51.173Z,13.90
2022-11-06T11:49:31.899Z,14.00
2022-11-06T11:52:01.585Z,14.10
2022-11-06T11:54:34.553Z,14.10
2022-11-06T11:57:06.696Z,14.90
2022-11-06T11:59:49.692Z,14.30
2022-11-06T12:02:27.682Z,14.40
2022-11-06T12:05:10.810Z,14.50
2022-11-06T12:07:46.216Z,14.60
2022-11-06T12:10:39.798Z,14.70
2022-11-06T12:13:23.223Z,14.70
2022-11-06T12:16:06.918Z,14.80
2022-11-06T12:18:46.507Z,14.80
2022-11-06T12:23:43.415Z,15.00
2022-11-06T12:26:47.591Z,15.00
2022-11-06T12:29:21.909Z,15.10
2022-11-06T12:31:55.424Z,15.20
2022-11-06T12:34:39.255Z,15.30
2022-11-06T12:37:54.392Z,15.40
2022-11-06T12:40:35.382Z,15.50
2022-11-06T12:43:25.494Z,15.60
2022-11-06T12:46:07.687Z,15.70
2022-11-06T12:49:12.267Z,15.80
2022-11-06T12:51:45.177Z,15.90
2022-11-06T12:54:49.895Z,15.90
2022-11-06T12:57:38.444Z,16.00
2022-11-06T13:00:11.320Z,16.00
2022-11-06T13:02:57.073Z,16.10
2022-11-06T13:05:35.438Z,16.10
2022-11-06T13:08:20.755Z,16.10
2022-11-06T13:10:52.268Z,16.20
2022-11-06T13:13:53.494Z,16.20
2022-11-06T13:16:37.389Z,16.20
2022-11-06T13:19:31.880Z,16.20
2022-11-06T13:22:10.077Z,16.20
2022-11-06T13:25:14.530Z,16.20
2022-11-06T13:28:04.716Z,16.20
2022-11-06T13:30:33.243Z,16.20
2022-11-06T13:33:06.736Z,16.20
2022-11-06T13:35:36.791Z,16.20
2022-11-06T13:38:08.345Z,16.20
2022-11-06T13:40:44.183Z,16.10
2022-11-06T13:46:07.410Z,16.10
2022-11-06T13:49:08.536Z,16.00
2022-11-06T13:51:52.388Z,16.00
2022-11-06T13:54:28.362Z,15.80
2022-11-06T13:57:14.719Z,16.00
2022-11-06T14:02:18.422Z,15.90
2022-11-06T14:05:17.067Z,15.80
2022-11-06T14:10:23.342Z,15.80
2022-11-06T14:12:51.063Z,15.80
2022-11-06T14:15:20.672Z,15.80
2022-11-06T14:18:01.463Z,15.70
2022-11-06T14:20:35.511Z,15.70
2022-11-06T14:23:30.426Z,15.70
2022-11-06T14:26:12.864Z,15.70
2022-11-06T14:28:44.474Z,15.70
2022-11-06T14:31:32.030Z,15.50
2022-11-06T14:34:00.819Z,15.60
2022-11-06T14:36:29.422Z,15.60
2022-11-06T14:38:56.515Z,15.60
2022-11-06T14:41:35.713Z,15.60
2022-11-06T14:44:18.379Z,15.50
2022-11-06T14:46:55.538Z,15.60
2022-11-06T14:49:53.875Z,15.60
2022-11-06T14:52:23.883Z,15.50
2022-11-06T14:55:05.135Z,15.60
2022-11-06T14:57:43.804Z,15.50
2022-11-06T15:00:32.764Z,15.50
2022-11-06T15:03:00.467Z,15.40
2022-11-06T15:08:06.251Z,15.50
2022-11-06T15:10:42.418Z,15.50
2022-11-06T15:13:22.694Z,15.40
2022-11-06T15:15:53.168Z,15.40
2022-11-06T15:18:23.679Z,15.40
2022-11-06T15:20:55.503Z,15.40
2022-11-06T15:23:31.504Z,15.40
2022-11-06T15:26:08.664Z,15.40
2022-11-06T15:28:44.690Z,15.40
2022-11-06T15:31:16.904Z,15.40
2022-11-06T15:34:22.645Z,15.30
2022-11-06T15:36:54.362Z,15.30
2022-11-06T15:41:54.483Z,15.20
2022-11-06T15:44:24.038Z,15.20
2022-11-06T15:46:59.165Z,15.10
2022-11-06T15:49:26.618Z,15.10
2022-11-06T15:51:59.545Z,15.10
2022-11-06T15:54:39.322Z,15.00
2022-11-06T15:57:24.592Z,15.00
2022-11-06T16:00:07.406Z,15.00
2022-11-06T16:02:48.086Z,15.00
2022-11-06T16:05:17.289Z,15.00
2022-11-06T16:07:46.241Z,14.90
2022-11-06T16:10:18.730Z,14.90
2022-11-06T16:12:53.952Z,14.90
2022-11-06T16:15:45.806Z,14.90
2022-11-06T16:23:13.800Z,14.80
2022-11-06T16:28:20.484Z,14.80
2022-11-06T16:30:49.541Z,14.70
2022-11-06T16:33:21.260Z,14.70
2022-11-06T16:36:05.466Z,14.70
2022-11-06T16:38:41.614Z,14.70
2022-11-06T16:46:08.489Z,14.60
2022-11-06T16:48:45.570Z,14.60
2022-11-06T16:51:36.637Z,14.60
2022-11-06T16:56:34.405Z,14.50
2022-11-06T17:01:36.753Z,14.40
2022-11-06T17:04:04.036Z,14.50
2022-11-06T17:06:34.399Z,14.40
2022-11-06T17:09:23.677Z,14.40
2022-11-06T17:11:54.309Z,14.40
2022-11-06T17:14:22.215Z,14.40
2022-11-06T17:17:00.320Z,14.40
2022-11-06T17:19:28.400Z,14.40
2022-11-06T17:21:55.747Z,14.40
2022-11-06T17:29:35.806Z,14.40
2022-11-06T17:52:00.409Z,14.30
2022-11-06T17:54:32.186Z,14.30
2022-11-06T17:57:02.107Z,14.20
2022-11-06T17:59:29.345Z,14.00
2022-11-06T18:04:26.351Z,14.30
2022-11-06T18:06:54.427Z,14.30
2022-11-06T18:09:22.104Z,14.20
2022-11-06T18:11:50.583Z,14.20
2022-11-06T18:16:45.281Z,14.20
2022-11-06T18:19:15.330Z,14.20
2022-11-06T18:24:09.863Z,14.20
2022-11-06T18:29:05.851Z,14.10
2022-11-06T18:43:56.032Z,14.10
2022-11-06T18:48:55.944Z,14.00
2022-11-06T18:51:35.223Z,14.00
2022-11-06T18:54:06.043Z,14.00
2022-11-06T18:59:03.184Z,13.90
2022-11-06T19:16:19.438Z,13.70
2022-11-06T19:21:29.853Z,13.70
2022-11-06T19:24:05.929Z,13.70
2022-11-06T19:26:35.467Z,13.70
2022-11-06T19:34:00.189Z,13.70
2022-11-06T19:38:57.410Z,13.80
2022-11-06T19:41:25.782Z,13.80
2022-11-06T20:01:25.330Z,13.70
2022-11-06T20:08:48.995Z,13.60
2022-11-06T20:13:45.214Z,13.60
2022-11-06T20:16:20.047Z,13.60
2022-11-06T20:18:52.426Z,13.60
2022-11-06T20:21:21.351Z,13.60
2022-11-06T20:23:49.099Z,13.60
2022-11-06T20:26:26.057Z,13.60
2022-11-06T20:36:27.163Z,13.50
2022-11-06T20:38:56.803Z,13.50
2022-11-06T20:41:28.493Z,13.50
2022-11-06T20:46:24.476Z,13.50
2022-11-06T20:48:51.904Z,13.50
2022-11-06T20:51:22.289Z,13.50
2022-11-06T20:56:20.585Z,13.50
2022-11-06T21:01:20.361Z,13.50
2022-11-06T21:03:49.593Z,13.50
2022-11-06T21:06:18.154Z,13.50
2022-11-06T21:08:45.687Z,13.50
2022-11-06T21:11:20.743Z,13.50
2022-11-06T21:13:49.613Z,13.50
2022-11-06T21:16:23.048Z,13.50
2022-11-06T21:21:21.609Z,16.60
2022-11-06T21:23:49.806Z,13.50
2022-11-06T21:26:26.863Z,13.50
2022-11-06T21:31:25.420Z,13.40
2022-11-06T21:33:53.898Z,13.50
2022-11-06T21:36:29.582Z,13.60
2022-11-06T21:39:03.610Z,13.50
2022-11-06T21:41:34.089Z,13.50
2022-11-06T21:44:02.617Z,13.60
2022-11-06T21:51:27.375Z,13.50
2022-11-06T21:54:18.356Z,13.60
2022-11-06T21:56:48.584Z,13.60
2022-11-06T21:59:17.832Z,13.60
2022-11-06T22:04:13.902Z,13.50
2022-11-06T22:06:42.344Z,13.50
2022-11-06T22:09:10.997Z,13.50
2022-11-06T22:11:40.227Z,13.60
2022-11-06T22:14:11.517Z,13.50
2022-11-06T22:16:41.318Z,13.50
2022-11-06T22:19:09.532Z,15.00
2022-11-06T22:21:38.977Z,13.40
2022-11-06T22:24:07.277Z,13.50
2022-11-06T22:26:35.448Z,13.50
2022-11-06T22:29:06.471Z,13.50
2022-11-06T22:41:24.927Z,13.40
2022-11-06T22:43:52.454Z,13.40
2022-11-06T22:46:23.507Z,13.40
2022-11-06T22:48:51.626Z,13.40
2022-11-06T22:51:24.203Z,13.40
2022-11-06T22:53:52.354Z,13.40
2022-11-06T22:56:20.867Z,13.40
2022-11-06T22:58:48.111Z,13.50
2022-11-06T23:01:14.956Z,13.40
2022-11-06T23:03:41.721Z,13.40
2022-11-06T23:06:09.684Z,13.40
2022-11-06T23:08:40.663Z,13.50
2022-11-06T23:11:12.357Z,13.50
2022-11-06T23:13:40.215Z,13.50
2022-11-06T23:16:13.540Z,13.50
2022-11-06T23:18:41.040Z,13.50
2022-11-06T23:21:17.803Z,13.60
2022-11-06T23:23:45.660Z,13.50
2022-11-06T23:26:17.867Z,13.80
2022-11-06T23:28:45.306Z,13.60
2022-11-06T23:31:13.980Z,13.60
2022-11-06T23:33:41.326Z,13.60
2022-11-06T23:36:11.328Z,13.60
2022-11-06T23:38:38.381Z,13.60
2022-11-06T23:41:32.343Z,13.60
2022-11-06T23:43:59.665Z,13.60
2022-11-06T23:46:28.843Z,13.60
2022-11-06T23:48:56.391Z,13.70
2022-11-06T23:51:24.971Z,13.70
2022-11-06T23:53:52.422Z,13.70
2022-11-06T23:56:19.227Z,13.70
2022-11-06T23:58:46.145Z,17.00
